WetterOnline ( https://www.wetteronline.de )

Wetter aktuell Bolsterlang

Aktuelles Wetter: Oberstdorf (812m)

6-stündlich | Neueste Meldungen
Ortszeit Temperatur Wetter
Fr, 12.07. 20:00 15.1° C leichter Regen
Fr, 12.07. 14:00 22.1° C leicht bewölkt
Fr, 12.07. 8:00 17.6° C leichter Regen
Fr, 12.07. 2:00 15.9° C bewölkt
Do, 11.07. 20:00 21.8° C wolkig
Do, 11.07. 14:00 24.8° C wolkig
Do, 11.07. 8:00 17.4° C wolkig
Do, 11.07. 2:00 15.1° C leicht bewölkt
Ortszeit Temperatur Wetter
Fr, 12.07. 22:00 15.4° C leichter Regen
Fr, 12.07. 21:50 15.4° C leichter Regen
Fr, 12.07. 21:40 15.4° C bedeckt
Fr, 12.07. 21:30 15.4° C Sprühregen
Fr, 12.07. 21:20 15.4° C Sprühregen
Fr, 12.07. 21:10 15.4° C leichter Regen
Fr, 12.07. 21:00 15.3° C leichter Regen
Fr, 12.07. 20:30 15.8° C Regen
Fr, 12.07. 20:00 15.1° C leichter Regen
Fr, 12.07. 19:30 18.6° C wolkig
Fr, 12.07. 19:00 22.0° C wolkig
Ortszeit Relative Feuchte Sichtweite
Fr, 12.07. 20:00 93% 7 km
Fr, 12.07. 14:00 76% >70 km
Fr, 12.07. 8:00 82% 40 km
Fr, 12.07. 2:00 95% 60 km
Do, 11.07. 20:00 82% 60 km
Do, 11.07. 14:00 66% 55 km
Do, 11.07. 8:00 90% 65 km
Do, 11.07. 2:00 96% 45 km
Ortszeit Relative Feuchte Sichtweite
Fr, 12.07. 22:00 96% 55 km
Fr, 12.07. 21:50 96% -
Fr, 12.07. 21:40 95% -
Fr, 12.07. 21:30 95% 35 km
Fr, 12.07. 21:20 95% -
Fr, 12.07. 21:10 93% -
Fr, 12.07. 21:00 94% 28 km
Fr, 12.07. 20:30 89% 10 km
Fr, 12.07. 20:00 93% 7 km
Fr, 12.07. 19:30 75% 65 km
Fr, 12.07. 19:00 71% 65 km
Ortszeit Niederschlagsmenge Niederschlagsart
Fr, 12.07. 20:00 16 l/m2 in 12 Std. Regen
Fr, 12.07. 14:00 4 l/m2 in 6 Std. Regen
Fr, 12.07. 8:00 0.6 l/m2 in 12 Std. Regen
Fr, 12.07. 2:00 0.5 l/m2 in 6 Std. Regen
Do, 11.07. 20:00 0.0 l/m2 in 12 Std. -
Do, 11.07. 14:00 0.0 l/m2 in 6 Std. -
Do, 11.07. 8:00 2 l/m2 in 12 Std. Regen
Do, 11.07. 2:00 2 l/m2 in 6 Std. Regen
Ortszeit Niederschlagsmenge Niederschlagsart
Fr, 12.07. 22:00 0.5 l/m2 in 1 Std. Regen
Fr, 12.07. 21:50 keine Meldung -
Fr, 12.07. 21:40 keine Meldung -
Fr, 12.07. 21:30 0.5 l/m2 in 30 Min -
Fr, 12.07. 21:20 keine Meldung -
Fr, 12.07. 21:10 keine Meldung -
Fr, 12.07. 21:00 5.0 l/m2 in 1 Std. Regen
Fr, 12.07. 20:30 2.5 l/m2 in 30 Min -
Fr, 12.07. 20:00 12.4 l/m2 in 1 Std. Regen
Fr, 12.07. 19:30 <0.05 l/m2 in 30 Min Regen
Fr, 12.07. 19:00 0.0 l/m2 in 1 Std. -
Ortszeit Stärke Spitze Richtung
km/h Bft. km/h Grad Sektor
Fr, 12.07. 20:00 11 2 76 100° O
Fr, 12.07. 14:00 4 1 25 290° W
Fr, 12.07. 8:00 14 3 18 160° S
Fr, 12.07. 2:00 6 1 20 170° S
Do, 11.07. 20:00 7 2 25 160° S
Do, 11.07. 14:00 15 3 22 340° N
Do, 11.07. 8:00 4 1 14 130° SO
Do, 11.07. 2:00 7 2 25 180° S
Ortszeit Stärke Spitze Richtung
km/h Bft. km/h Grad Sektor
Fr, 12.07. 22:00 6 1 17 210° SW
Fr, 12.07. 21:50 6 1 - 210° SW
Fr, 12.07. 21:40 9 2 - 180° S
Fr, 12.07. 21:30 7 2 18 170° S
Fr, 12.07. 21:20 7 2 - 170° S
Fr, 12.07. 21:10 11 2 - 150° SO
Fr, 12.07. 21:00 7 2 22 120° SO
Fr, 12.07. 20:30 13 3 22 130° SO
Fr, 12.07. 20:00 11 2 76 100° O
Fr, 12.07. 19:30 31 5 61 270° W
Fr, 12.07. 19:00 4 1 25 290° W
Ortszeit Untergrenze Bedeckung Gattung
total tief tief mittel hoch
Fr, 12.07. 20:00 90 m 8/8 8/8 - - -
Fr, 12.07. 14:00 4500 m 4/8 4/8 - - -
Fr, 12.07. 8:00 3000 m 8/8 8/8 - - -
Fr, 12.07. 2:00 3600 m 7/8 7/8 - - -
Do, 11.07. 20:00 2100 m 7/8 5/8 - - -
Do, 11.07. 14:00 1800 m 6/8 6/8 - - -
Do, 11.07. 8:00 1500 m 8/8 2/8 - - -
Do, 11.07. 2:00 2400 m 5/8 1/8 - - -
Ortszeit Bedeckungsgrad in Achtel und Wolkenuntergrenze
Fr, 12.07. 22:00 2(1320m) 6(1500m) 8(1800m)
Fr, 12.07. 21:50 2(1320m) 6(1500m) 8(1800m)
Fr, 12.07. 21:40 8
Fr, 12.07. 21:30 1(930m) 3(1320m) 7(1800m)
Fr, 12.07. 21:20 1(930m) 3(1320m) 7(1800m)
Fr, 12.07. 21:10 8
Fr, 12.07. 21:00 2(720m) 7(1500m) 8(1800m)
Fr, 12.07. 20:30 4(660m) 7(870m)
Fr, 12.07. 20:00 1(90m) 7(1110m) 8(1440m)
Fr, 12.07. 19:30 2(750m) 8(3000m) 8(4200m)
Fr, 12.07. 19:00 2(1050m) 7(3600m) 7(8100m)
Ortszeit Stationsdruck (hPa) Tendenz (hPa in 3 Std.)
Fr, 12.07. 20:00 922 + 2,2
Fr, 12.07. 14:00 921 - 0,5
Fr, 12.07. 8:00 923 + 0,3
Fr, 12.07. 2:00 924 - 1,9
Do, 11.07. 20:00 925 - 0,5
Do, 11.07. 14:00 927 - 0,2
Do, 11.07. 8:00 928 + 0,3
Do, 11.07. 2:00 928 - 0,4
Ortszeit Stationsdruck (hPa) Tendenz (hPa in 3 Std.)
Fr, 12.07. 22:00 923 + 5,2
Fr, 12.07. 21:50 923 keine Meldung
Fr, 12.07. 21:40 923 keine Meldung
Fr, 12.07. 21:30 923 + 4,5
Fr, 12.07. 21:20 923 keine Meldung
Fr, 12.07. 21:10 923 keine Meldung
Fr, 12.07. 21:00 923 + 3,8
Fr, 12.07. 20:30 922 + 2,9
Fr, 12.07. 20:00 922 + 2,2
Fr, 12.07. 19:30 920 + 0,2
Fr, 12.07. 19:00 918 - 1,9
Ortszeit Schneehöhe (cm)
Fr, 12.07. 20:00 0
Fr, 12.07. 14:00 0
Fr, 12.07. 8:00 0
Fr, 12.07. 2:00 0
Do, 11.07. 20:00 0
Do, 11.07. 14:00 0
Do, 11.07. 8:00 0
Do, 11.07. 2:00 0
Ortszeit Schneehöhe (cm)
Fr, 12.07. 22:00 0
Fr, 12.07. 21:50 0
Fr, 12.07. 21:40 -
Fr, 12.07. 21:30 0
Fr, 12.07. 21:20 0
Fr, 12.07. 21:10 -
Fr, 12.07. 21:00 0
Fr, 12.07. 20:30 0
Fr, 12.07. 20:00 0
Fr, 12.07. 19:30 0
Fr, 12.07. 19:00 0
Link zu dieser Seite / Seite empfehlen

Das Wetter in ...